sensor_id;sensor_type;location;lat;lon;timestamp;temperature;humidity
40287;DHT22;25998;46.604;13.610;2022-10-16T00:00:19;11.10;99.90
40287;DHT22;25998;46.604;13.610;2022-10-16T00:03:30;11.10;99.90
40287;DHT22;25998;46.604;13.610;2022-10-16T00:06:41;11.10;99.90
40287;DHT22;25998;46.604;13.610;2022-10-16T00:09:51;11.20;99.90
40287;DHT22;25998;46.604;13.610;2022-10-16T00:13:03;11.30;99.90
40287;DHT22;25998;46.604;13.610;2022-10-16T00:16:15;11.50;99.90
40287;DHT22;25998;46.604;13.610;2022-10-16T00:19:26;11.60;99.90
40287;DHT22;25998;46.604;13.610;2022-10-16T00:22:37;11.80;99.90
40287;DHT22;25998;46.604;13.610;2022-10-16T00:26:05;11.80;99.90
40287;DHT22;25998;46.604;13.610;2022-10-16T00:29:16;11.70;99.90
40287;DHT22;25998;46.604;13.610;2022-10-16T00:32:27;11.70;99.90
40287;DHT22;25998;46.604;13.610;2022-10-16T00:35:38;11.60;99.90
40287;DHT22;25998;46.604;13.610;2022-10-16T00:38:56;11.20;99.90
40287;DHT22;25998;46.604;13.610;2022-10-16T00:42:15;11.00;99.90
40287;DHT22;25998;46.604;13.610;2022-10-16T00:45:26;10.90;99.90
40287;DHT22;25998;46.604;13.610;2022-10-16T00:48:37;11.00;99.90
40287;DHT22;25998;46.604;13.610;2022-10-16T00:51:50;11.20;99.90
40287;DHT22;25998;46.604;13.610;2022-10-16T00:55:03;11.30;99.90
40287;DHT22;25998;46.604;13.610;2022-10-16T00:58:15;11.40;99.90
40287;DHT22;25998;46.604;13.610;2022-10-16T01:01:26;11.30;99.90
40287;DHT22;25998;46.604;13.610;2022-10-16T01:04:42;11.20;99.90
40287;DHT22;25998;46.604;13.610;2022-10-16T01:14:58;10.90;99.90
40287;DHT22;25998;46.604;13.610;2022-10-16T01:21:36;10.70;99.90
40287;DHT22;25998;46.604;13.610;2022-10-16T01:24:50;10.70;99.90
40287;DHT22;25998;46.604;13.610;2022-10-16T01:28:02;10.70;99.90
40287;DHT22;25998;46.604;13.610;2022-10-16T01:31:19;10.90;99.90
40287;DHT22;25998;46.604;13.610;2022-10-16T01:34:37;11.20;99.90
40287;DHT22;25998;46.604;13.610;2022-10-16T01:37:59;11.40;99.90
40287;DHT22;25998;46.604;13.610;2022-10-16T01:44:32;11.20;99.90
40287;DHT22;25998;46.604;13.610;2022-10-16T01:47:44;11.00;99.90
40287;DHT22;25998;46.604;13.610;2022-10-16T01:51:05;10.80;99.90
40287;DHT22;25998;46.604;13.610;2022-10-16T01:54:19;10.70;99.90
40287;DHT22;25998;46.604;13.610;2022-10-16T01:57:32;10.60;99.90
40287;DHT22;25998;46.604;13.610;2022-10-16T02:00:46;10.70;99.90
40287;DHT22;25998;46.604;13.610;2022-10-16T02:04:07;10.80;99.90
40287;DHT22;25998;46.604;13.610;2022-10-16T02:07:19;10.80;99.90
40287;DHT22;25998;46.604;13.610;2022-10-16T02:10:30;10.70;99.90
40287;DHT22;25998;46.604;13.610;2022-10-16T02:13:48;10.70;99.90
40287;DHT22;25998;46.604;13.610;2022-10-16T02:17:00;10.90;99.90
40287;DHT22;25998;46.604;13.610;2022-10-16T02:20:11;11.00;99.90
40287;DHT22;25998;46.604;13.610;2022-10-16T02:24:11;11.00;99.90
40287;DHT22;25998;46.604;13.610;2022-10-16T02:31:00;10.60;99.90
40287;DHT22;25998;46.604;13.610;2022-10-16T02:34:12;10.50;99.90
40287;DHT22;25998;46.604;13.610;2022-10-16T02:37:25;10.50;99.90
40287;DHT22;25998;46.604;13.610;2022-10-16T02:40:36;10.50;99.90
40287;DHT22;25998;46.604;13.610;2022-10-16T02:43:47;10.40;99.90
40287;DHT22;25998;46.604;13.610;2022-10-16T02:46:59;10.50;99.90
40287;DHT22;25998;46.604;13.610;2022-10-16T02:50:10;10.60;99.90
40287;DHT22;25998;46.604;13.610;2022-10-16T02:53:20;10.80;99.90
40287;DHT22;25998;46.604;13.610;2022-10-16T02:56:31;11.00;99.90
40287;DHT22;25998;46.604;13.610;2022-10-16T02:59:42;11.00;99.90
40287;DHT22;25998;46.604;13.610;2022-10-16T03:02:53;11.10;99.90
40287;DHT22;25998;46.604;13.610;2022-10-16T03:06:05;11.20;99.90
40287;DHT22;25998;46.604;13.610;2022-10-16T03:09:16;11.20;99.90
40287;DHT22;25998;46.604;13.610;2022-10-16T03:12:28;10.90;99.90
40287;DHT22;25998;46.604;13.610;2022-10-16T03:15:39;10.60;99.90
40287;DHT22;25998;46.604;13.610;2022-10-16T03:18:50;10.50;99.90
40287;DHT22;25998;46.604;13.610;2022-10-16T03:22:01;10.50;99.90
40287;DHT22;25998;46.604;13.610;2022-10-16T03:25:12;10.40;99.90
40287;DHT22;25998;46.604;13.610;2022-10-16T03:28:22;10.40;99.90
40287;DHT22;25998;46.604;13.610;2022-10-16T03:31:33;10.40;99.90
40287;DHT22;25998;46.604;13.610;2022-10-16T03:34:44;10.50;99.90
40287;DHT22;25998;46.604;13.610;2022-10-16T03:37:55;10.70;99.90
40287;DHT22;25998;46.604;13.610;2022-10-16T03:41:06;10.60;99.90
40287;DHT22;25998;46.604;13.610;2022-10-16T03:44:18;10.40;99.90
40287;DHT22;25998;46.604;13.610;2022-10-16T03:47:29;10.30;99.90
40287;DHT22;25998;46.604;13.610;2022-10-16T03:50:40;10.30;99.90
40287;DHT22;25998;46.604;13.610;2022-10-16T03:53:51;10.20;99.90
40287;DHT22;25998;46.604;13.610;2022-10-16T03:57:01;10.20;99.90
40287;DHT22;25998;46.604;13.610;2022-10-16T04:00:13;10.20;99.90
40287;DHT22;25998;46.604;13.610;2022-10-16T04:03:24;10.20;99.90
40287;DHT22;25998;46.604;13.610;2022-10-16T04:06:35;10.20;99.90
40287;DHT22;25998;46.604;13.610;2022-10-16T04:09:46;10.40;99.90
40287;DHT22;25998;46.604;13.610;2022-10-16T04:12:56;10.70;99.90
40287;DHT22;25998;46.604;13.610;2022-10-16T04:16:08;10.80;99.90
40287;DHT22;25998;46.604;13.610;2022-10-16T04:19:19;10.80;99.90
40287;DHT22;25998;46.604;13.610;2022-10-16T04:22:30;10.70;99.90
40287;DHT22;25998;46.604;13.610;2022-10-16T04:25:41;10.60;99.90
40287;DHT22;25998;46.604;13.610;2022-10-16T04:28:51;10.40;99.90
40287;DHT22;25998;46.604;13.610;2022-10-16T04:32:02;10.20;99.90
40287;DHT22;25998;46.604;13.610;2022-10-16T04:35:13;10.20;99.90
40287;DHT22;25998;46.604;13.610;2022-10-16T04:38:24;10.20;99.90
40287;DHT22;25998;46.604;13.610;2022-10-16T04:41:36;10.10;99.90
40287;DHT22;25998;46.604;13.610;2022-10-16T04:44:47;10.10;99.90
40287;DHT22;25998;46.604;13.610;2022-10-16T04:47:59;10.20;99.90
40287;DHT22;25998;46.604;13.610;2022-10-16T04:51:10;10.40;99.90
40287;DHT22;25998;46.604;13.610;2022-10-16T04:54:21;10.50;99.90
40287;DHT22;25998;46.604;13.610;2022-10-16T04:57:32;10.50;99.90
40287;DHT22;25998;46.604;13.610;2022-10-16T05:00:44;10.30;99.90
40287;DHT22;25998;46.604;13.610;2022-10-16T05:03:56;10.30;99.90
40287;DHT22;25998;46.604;13.610;2022-10-16T05:07:07;10.20;99.90
40287;DHT22;25998;46.604;13.610;2022-10-16T05:10:18;10.10;99.90
40287;DHT22;25998;46.604;13.610;2022-10-16T05:13:29;10.10;99.90
40287;DHT22;25998;46.604;13.610;2022-10-16T05:16:39;10.10;99.90
40287;DHT22;25998;46.604;13.610;2022-10-16T05:19:50;10.10;99.90
40287;DHT22;25998;46.604;13.610;2022-10-16T05:23:01;10.00;99.90
40287;DHT22;25998;46.604;13.610;2022-10-16T05:26:12;10.00;99.90
40287;DHT22;25998;46.604;13.610;2022-10-16T05:29:23;10.20;99.90
40287;DHT22;25998;46.604;13.610;2022-10-16T05:32:34;10.40;99.90
40287;DHT22;25998;46.604;13.610;2022-10-16T05:35:44;10.60;99.90
40287;DHT22;25998;46.604;13.610;2022-10-16T05:38:55;10.80;99.90
40287;DHT22;25998;46.604;13.610;2022-10-16T05:42:07;10.70;99.90
40287;DHT22;25998;46.604;13.610;2022-10-16T05:45:18;10.90;99.90
40287;DHT22;25998;46.604;13.610;2022-10-16T05:48:29;10.60;99.90
40287;DHT22;25998;46.604;13.610;2022-10-16T05:51:40;10.30;99.90
40287;DHT22;25998;46.604;13.610;2022-10-16T05:54:51;10.20;99.90
40287;DHT22;25998;46.604;13.610;2022-10-16T05:58:02;10.20;99.90
40287;DHT22;25998;46.604;13.610;2022-10-16T06:01:15;10.10;99.90
40287;DHT22;25998;46.604;13.610;2022-10-16T06:04:26;10.10;99.90
40287;DHT22;25998;46.604;13.610;2022-10-16T06:07:37;10.30;99.90
40287;DHT22;25998;46.604;13.610;2022-10-16T06:10:59;10.40;99.90
40287;DHT22;25998;46.604;13.610;2022-10-16T06:14:10;10.50;99.90
40287;DHT22;25998;46.604;13.610;2022-10-16T06:17:21;10.60;99.90
40287;DHT22;25998;46.604;13.610;2022-10-16T06:20:32;10.50;99.90
40287;DHT22;25998;46.604;13.610;2022-10-16T06:23:43;10.40;99.90
40287;DHT22;25998;46.604;13.610;2022-10-16T06:26:54;10.30;99.90
40287;DHT22;25998;46.604;13.610;2022-10-16T06:30:05;10.30;99.90
40287;DHT22;25998;46.604;13.610;2022-10-16T06:33:16;10.20;99.90
40287;DHT22;25998;46.604;13.610;2022-10-16T06:36:27;10.20;99.90
40287;DHT22;25998;46.604;13.610;2022-10-16T06:39:38;10.30;99.90
40287;DHT22;25998;46.604;13.610;2022-10-16T06:42:49;10.30;99.90
40287;DHT22;25998;46.604;13.610;2022-10-16T06:46:04;10.40;99.90
40287;DHT22;25998;46.604;13.610;2022-10-16T06:49:15;10.50;99.90
40287;DHT22;25998;46.604;13.610;2022-10-16T06:52:32;10.60;99.90
40287;DHT22;25998;46.604;13.610;2022-10-16T06:55:44;10.80;99.90
40287;DHT22;25998;46.604;13.610;2022-10-16T06:58:54;10.90;99.90
40287;DHT22;25998;46.604;13.610;2022-10-16T07:02:06;10.90;99.90
40287;DHT22;25998;46.604;13.610;2022-10-16T07:05:17;11.00;99.90
40287;DHT22;25998;46.604;13.610;2022-10-16T07:08:31;11.10;99.90
40287;DHT22;25998;46.604;13.610;2022-10-16T07:11:43;11.40;99.90
40287;DHT22;25998;46.604;13.610;2022-10-16T07:14:54;11.40;99.90
40287;DHT22;25998;46.604;13.610;2022-10-16T07:18:07;11.30;99.90
40287;DHT22;25998;46.604;13.610;2022-10-16T07:21:20;11.40;99.90
40287;DHT22;25998;46.604;13.610;2022-10-16T07:24:31;11.50;99.90
40287;DHT22;25998;46.604;13.610;2022-10-16T07:27:42;11.50;99.90
40287;DHT22;25998;46.604;13.610;2022-10-16T07:30:52;11.60;99.90
40287;DHT22;25998;46.604;13.610;2022-10-16T07:34:03;11.70;99.90
40287;DHT22;25998;46.604;13.610;2022-10-16T07:37:14;11.70;99.90
40287;DHT22;25998;46.604;13.610;2022-10-16T07:40:25;11.90;99.90
40287;DHT22;25998;46.604;13.610;2022-10-16T07:43:37;12.00;99.90
40287;DHT22;25998;46.604;13.610;2022-10-16T07:46:48;12.00;99.90
40287;DHT22;25998;46.604;13.610;2022-10-16T07:49:59;12.00;99.90
40287;DHT22;25998;46.604;13.610;2022-10-16T07:53:10;12.10;99.90
40287;DHT22;25998;46.604;13.610;2022-10-16T07:56:22;12.50;99.90
40287;DHT22;25998;46.604;13.610;2022-10-16T07:59:33;13.20;99.90
40287;DHT22;25998;46.604;13.610;2022-10-16T08:02:44;13.70;99.90
40287;DHT22;25998;46.604;13.610;2022-10-16T08:05:57;14.60;99.90
40287;DHT22;25998;46.604;13.610;2022-10-16T08:09:08;15.30;99.90
40287;DHT22;25998;46.604;13.610;2022-10-16T08:12:19;15.60;99.90
40287;DHT22;25998;46.604;13.610;2022-10-16T08:15:30;15.90;99.90
40287;DHT22;25998;46.604;13.610;2022-10-16T08:18:41;16.20;99.90
40287;DHT22;25998;46.604;13.610;2022-10-16T08:21:52;16.20;99.90
40287;DHT22;25998;46.604;13.610;2022-10-16T08:25:03;16.60;99.90
40287;DHT22;25998;46.604;13.610;2022-10-16T08:28:14;17.00;99.90
40287;DHT22;25998;46.604;13.610;2022-10-16T08:31:26;17.20;99.90
40287;DHT22;25998;46.604;13.610;2022-10-16T08:34:37;17.30;99.90
40287;DHT22;25998;46.604;13.610;2022-10-16T08:37:48;17.40;99.90
40287;DHT22;25998;46.604;13.610;2022-10-16T08:48:15;18.00;99.90
40287;DHT22;25998;46.604;13.610;2022-10-16T08:51:31;18.20;99.90
40287;DHT22;25998;46.604;13.610;2022-10-16T08:54:46;18.30;99.90
40287;DHT22;25998;46.604;13.610;2022-10-16T08:57:59;18.40;99.90
40287;DHT22;25998;46.604;13.610;2022-10-16T09:01:14;18.50;99.80
40287;DHT22;25998;46.604;13.610;2022-10-16T09:19:20;20.10;98.00
40287;DHT22;25998;46.604;13.610;2022-10-16T09:22:16;20.20;97.50
40287;DHT22;25998;46.604;13.610;2022-10-16T09:25:28;20.20;97.60
40287;DHT22;25998;46.604;13.610;2022-10-16T09:28:39;20.00;97.50
40287;DHT22;25998;46.604;13.610;2022-10-16T09:31:52;20.00;97.70
40287;DHT22;25998;46.604;13.610;2022-10-16T09:35:04;19.80;98.20
40287;DHT22;25998;46.604;13.610;2022-10-16T09:38:27;19.80;98.10
40287;DHT22;25998;46.604;13.610;2022-10-16T09:41:44;19.80;97.60
40287;DHT22;25998;46.604;13.610;2022-10-16T09:44:55;20.00;97.20
40287;DHT22;25998;46.604;13.610;2022-10-16T09:48:11;20.20;97.70
40287;DHT22;25998;46.604;13.610;2022-10-16T09:51:31;20.40;97.40
40287;DHT22;25998;46.604;13.610;2022-10-16T09:55:00;20.40;97.00
40287;DHT22;25998;46.604;13.610;2022-10-16T09:58:13;20.40;97.50
40287;DHT22;25998;46.604;13.610;2022-10-16T10:01:30;20.50;96.40
40287;DHT22;25998;46.604;13.610;2022-10-16T10:04:47;20.60;96.80
40287;DHT22;25998;46.604;13.610;2022-10-16T10:08:01;20.80;94.90
40287;DHT22;25998;46.604;13.610;2022-10-16T10:11:16;20.90;95.70
40287;DHT22;25998;46.604;13.610;2022-10-16T10:14:31;20.90;95.20
40287;DHT22;25998;46.604;13.610;2022-10-16T10:17:49;21.00;94.60
40287;DHT22;25998;46.604;13.610;2022-10-16T10:21:01;21.10;95.30
40287;DHT22;25998;46.604;13.610;2022-10-16T10:24:17;21.20;94.30
40287;DHT22;25998;46.604;13.610;2022-10-16T10:28:21;21.30;94.40
40287;DHT22;25998;46.604;13.610;2022-10-16T10:31:14;21.40;93.80
40287;DHT22;25998;46.604;13.610;2022-10-16T10:37:51;21.60;93.90
40287;DHT22;25998;46.604;13.610;2022-10-16T11:06:51;21.80;94.40
40287;DHT22;25998;46.604;13.610;2022-10-16T11:10:20;22.10;94.80
40287;DHT22;25998;46.604;13.610;2022-10-16T11:13:53;22.10;94.90
40287;DHT22;25998;46.604;13.610;2022-10-16T11:17:12;22.10;94.50
40287;DHT22;25998;46.604;13.610;2022-10-16T11:20:26;22.20;94.70
40287;DHT22;25998;46.604;13.610;2022-10-16T11:23:48;22.70;94.70
40287;DHT22;25998;46.604;13.610;2022-10-16T11:27:07;22.50;94.40
40287;DHT22;25998;46.604;13.610;2022-10-16T11:30:33;22.60;93.80
40287;DHT22;25998;46.604;13.610;2022-10-16T11:34:15;22.40;94.70
40287;DHT22;25998;46.604;13.610;2022-10-16T11:37:38;22.30;95.20
40287;DHT22;25998;46.604;13.610;2022-10-16T11:40:54;22.30;95.50
40287;DHT22;25998;46.604;13.610;2022-10-16T11:44:23;22.10;94.70
40287;DHT22;25998;46.604;13.610;2022-10-16T11:47:48;22.20;95.40
40287;DHT22;25998;46.604;13.610;2022-10-16T11:51:34;22.30;94.50
40287;DHT22;25998;46.604;13.610;2022-10-16T12:01:48;22.30;94.50
40287;DHT22;25998;46.604;13.610;2022-10-16T12:08:46;21.80;95.00
40287;DHT22;25998;46.604;13.610;2022-10-16T12:11:57;21.70;95.30
40287;DHT22;25998;46.604;13.610;2022-10-16T12:15:22;21.60;95.40
40287;DHT22;25998;46.604;13.610;2022-10-16T12:18:34;21.50;96.00
40287;DHT22;25998;46.604;13.610;2022-10-16T12:21:45;21.50;95.60
40287;DHT22;25998;46.604;13.610;2022-10-16T12:24:57;21.30;96.00
40287;DHT22;25998;46.604;13.610;2022-10-16T12:28:22;21.40;96.40
40287;DHT22;25998;46.604;13.610;2022-10-16T12:31:43;21.30;96.00
40287;DHT22;25998;46.604;13.610;2022-10-16T12:34:55;21.40;95.90
40287;DHT22;25998;46.604;13.610;2022-10-16T12:41:37;21.30;96.00
40287;DHT22;25998;46.604;13.610;2022-10-16T12:44:50;21.30;96.30
40287;DHT22;25998;46.604;13.610;2022-10-16T12:48:04;21.20;95.80
40287;DHT22;25998;46.604;13.610;2022-10-16T12:54:38;21.30;96.00
40287;DHT22;25998;46.604;13.610;2022-10-16T13:18:32;21.30;95.10
40287;DHT22;25998;46.604;13.610;2022-10-16T13:28:43;21.60;94.10
40287;DHT22;25998;46.604;13.610;2022-10-16T13:31:54;21.60;95.30
40287;DHT22;25998;46.604;13.610;2022-10-16T13:35:19;21.60;94.30
40287;DHT22;25998;46.604;13.610;2022-10-16T13:38:34;21.60;94.20
40287;DHT22;25998;46.604;13.610;2022-10-16T13:41:46;21.60;94.10
40287;DHT22;25998;46.604;13.610;2022-10-16T13:44:57;21.60;94.40
40287;DHT22;25998;46.604;13.610;2022-10-16T13:48:10;21.70;94.50
40287;DHT22;25998;46.604;13.610;2022-10-16T13:51:24;21.80;94.60
40287;DHT22;25998;46.604;13.610;2022-10-16T13:54:35;22.00;95.10
40287;DHT22;25998;46.604;13.610;2022-10-16T13:57:46;21.80;94.90
40287;DHT22;25998;46.604;13.610;2022-10-16T14:01:00;22.00;95.70
40287;DHT22;25998;46.604;13.610;2022-10-16T14:04:12;22.00;94.80
40287;DHT22;25998;46.604;13.610;2022-10-16T14:07:32;21.80;94.80
40287;DHT22;25998;46.604;13.610;2022-10-16T14:10:51;21.90;94.80
40287;DHT22;25998;46.604;13.610;2022-10-16T14:14:03;22.00;95.00
40287;DHT22;25998;46.604;13.610;2022-10-16T14:17:26;22.00;95.00
40287;DHT22;25998;46.604;13.610;2022-10-16T14:20:38;22.00;95.70
40287;DHT22;25998;46.604;13.610;2022-10-16T14:23:49;22.00;95.30
40287;DHT22;25998;46.604;13.610;2022-10-16T14:27:00;21.90;95.20
40287;DHT22;25998;46.604;13.610;2022-10-16T14:30:18;21.80;95.00
40287;DHT22;25998;46.604;13.610;2022-10-16T14:36:41;21.50;95.50
40287;DHT22;25998;46.604;13.610;2022-10-16T14:39:53;21.40;95.30
40287;DHT22;25998;46.604;13.610;2022-10-16T14:43:05;21.40;95.80
40287;DHT22;25998;46.604;13.610;2022-10-16T14:46:19;21.50;96.20
40287;DHT22;25998;46.604;13.610;2022-10-16T14:49:30;21.40;97.00
40287;DHT22;25998;46.604;13.610;2022-10-16T14:52:42;21.20;97.50
40287;DHT22;25998;46.604;13.610;2022-10-16T14:55:54;21.10;97.50
40287;DHT22;25998;46.604;13.610;2022-10-16T14:59:04;20.80;97.60
40287;DHT22;25998;46.604;13.610;2022-10-16T15:02:25;20.60;97.90
40287;DHT22;25998;46.604;13.610;2022-10-16T15:05:37;20.30;98.60
40287;DHT22;25998;46.604;13.610;2022-10-16T15:08:48;20.10;98.90
40287;DHT22;25998;46.604;13.610;2022-10-16T15:11:59;19.90;99.00
40287;DHT22;25998;46.604;13.610;2022-10-16T15:15:32;19.80;99.30
40287;DHT22;25998;46.604;13.610;2022-10-16T15:18:43;19.60;99.90
40287;DHT22;25998;46.604;13.610;2022-10-16T15:21:54;19.60;99.60
40287;DHT22;25998;46.604;13.610;2022-10-16T15:25:29;19.50;99.90
40287;DHT22;25998;46.604;13.610;2022-10-16T15:28:41;19.40;99.90
40287;DHT22;25998;46.604;13.610;2022-10-16T15:31:51;19.10;99.90
40287;DHT22;25998;46.604;13.610;2022-10-16T15:35:02;18.80;99.90
40287;DHT22;25998;46.604;13.610;2022-10-16T15:38:14;18.70;99.90
40287;DHT22;25998;46.604;13.610;2022-10-16T15:41:25;18.60;99.90
40287;DHT22;25998;46.604;13.610;2022-10-16T15:44:36;18.50;99.90
40287;DHT22;25998;46.604;13.610;2022-10-16T15:47:47;18.40;99.90
40287;DHT22;25998;46.604;13.610;2022-10-16T15:50:59;18.20;99.90
40287;DHT22;25998;46.604;13.610;2022-10-16T15:54:10;18.10;99.90
40287;DHT22;25998;46.604;13.610;2022-10-16T15:57:21;18.10;99.90
40287;DHT22;25998;46.604;13.610;2022-10-16T16:00:32;17.90;99.90
40287;DHT22;25998;46.604;13.610;2022-10-16T16:03:42;17.90;99.90
40287;DHT22;25998;46.604;13.610;2022-10-16T16:06:54;17.80;99.90
40287;DHT22;25998;46.604;13.610;2022-10-16T16:10:08;17.70;99.90
40287;DHT22;25998;46.604;13.610;2022-10-16T16:13:20;17.60;99.90
40287;DHT22;25998;46.604;13.610;2022-10-16T16:16:30;17.50;99.90
40287;DHT22;25998;46.604;13.610;2022-10-16T16:19:45;17.40;99.90
40287;DHT22;25998;46.604;13.610;2022-10-16T16:22:55;17.50;99.90
40287;DHT22;25998;46.604;13.610;2022-10-16T16:29:20;17.40;99.90
40287;DHT22;25998;46.604;13.610;2022-10-16T16:32:31;17.40;99.90
40287;DHT22;25998;46.604;13.610;2022-10-16T16:35:41;17.30;99.90
40287;DHT22;25998;46.604;13.610;2022-10-16T16:38:52;17.10;99.90
40287;DHT22;25998;46.604;13.610;2022-10-16T16:42:03;17.00;99.90
40287;DHT22;25998;46.604;13.610;2022-10-16T16:45:16;17.00;99.90
40287;DHT22;25998;46.604;13.610;2022-10-16T16:48:27;16.80;99.90
40287;DHT22;25998;46.604;13.610;2022-10-16T16:51:39;16.90;99.90
40287;DHT22;25998;46.604;13.610;2022-10-16T16:54:50;16.80;99.90
40287;DHT22;25998;46.604;13.610;2022-10-16T16:58:02;16.60;99.90
40287;DHT22;25998;46.604;13.610;2022-10-16T17:01:14;16.60;99.90
40287;DHT22;25998;46.604;13.610;2022-10-16T17:04:25;16.70;99.90
40287;DHT22;25998;46.604;13.610;2022-10-16T17:07:36;16.50;99.90
40287;DHT22;25998;46.604;13.610;2022-10-16T17:10:50;16.60;99.90
40287;DHT22;25998;46.604;13.610;2022-10-16T17:14:05;16.70;99.90
40287;DHT22;25998;46.604;13.610;2022-10-16T17:17:15;16.60;99.90
40287;DHT22;25998;46.604;13.610;2022-10-16T17:20:26;16.50;99.90
40287;DHT22;25998;46.604;13.610;2022-10-16T17:23:37;16.40;99.90
40287;DHT22;25998;46.604;13.610;2022-10-16T17:26:48;16.40;99.90
40287;DHT22;25998;46.604;13.610;2022-10-16T17:29:59;16.30;99.90
40287;DHT22;25998;46.604;13.610;2022-10-16T17:33:11;16.10;99.90
40287;DHT22;25998;46.604;13.610;2022-10-16T17:36:22;16.00;99.90
40287;DHT22;25998;46.604;13.610;2022-10-16T17:39:34;16.10;99.90
40287;DHT22;25998;46.604;13.610;2022-10-16T17:42:44;15.90;99.90
40287;DHT22;25998;46.604;13.610;2022-10-16T17:45:55;16.00;99.90
40287;DHT22;25998;46.604;13.610;2022-10-16T17:49:06;15.90;99.90
40287;DHT22;25998;46.604;13.610;2022-10-16T17:52:17;15.90;99.90
40287;DHT22;25998;46.604;13.610;2022-10-16T17:55:28;16.10;99.90
40287;DHT22;25998;46.604;13.610;2022-10-16T17:58:39;16.00;99.90
40287;DHT22;25998;46.604;13.610;2022-10-16T18:01:50;15.90;99.90
40287;DHT22;25998;46.604;13.610;2022-10-16T18:05:01;15.70;99.90
40287;DHT22;25998;46.604;13.610;2022-10-16T18:08:11;15.60;99.90
40287;DHT22;25998;46.604;13.610;2022-10-16T18:11:23;15.50;99.90
40287;DHT22;25998;46.604;13.610;2022-10-16T18:14:34;15.60;99.90
40287;DHT22;25998;46.604;13.610;2022-10-16T18:17:45;15.70;99.90
40287;DHT22;25998;46.604;13.610;2022-10-16T18:21:00;15.50;99.90
40287;DHT22;25998;46.604;13.610;2022-10-16T18:24:12;15.50;99.90
40287;DHT22;25998;46.604;13.610;2022-10-16T18:27:23;15.40;99.90
40287;DHT22;25998;46.604;13.610;2022-10-16T18:30:34;15.50;99.90
40287;DHT22;25998;46.604;13.610;2022-10-16T18:33:45;15.60;99.90
40287;DHT22;25998;46.604;13.610;2022-10-16T18:37:00;15.60;99.90
40287;DHT22;25998;46.604;13.610;2022-10-16T18:40:10;15.50;99.90
40287;DHT22;25998;46.604;13.610;2022-10-16T18:43:21;15.30;99.90
40287;DHT22;25998;46.604;13.610;2022-10-16T18:46:32;15.00;99.90
40287;DHT22;25998;46.604;13.610;2022-10-16T18:49:43;14.90;99.90
40287;DHT22;25998;46.604;13.610;2022-10-16T18:52:56;14.80;99.90
40287;DHT22;25998;46.604;13.610;2022-10-16T18:56:07;14.70;99.90
40287;DHT22;25998;46.604;13.610;2022-10-16T18:59:18;14.70;99.90
40287;DHT22;25998;46.604;13.610;2022-10-16T19:02:29;14.90;99.90
40287;DHT22;25998;46.604;13.610;2022-10-16T19:05:40;14.90;99.90
40287;DHT22;25998;46.604;13.610;2022-10-16T19:08:52;15.00;99.90
40287;DHT22;25998;46.604;13.610;2022-10-16T19:12:03;15.00;99.90
40287;DHT22;25998;46.604;13.610;2022-10-16T19:15:14;14.90;99.90
40287;DHT22;25998;46.604;13.610;2022-10-16T19:18:27;14.90;99.90
40287;DHT22;25998;46.604;13.610;2022-10-16T19:21:38;14.90;99.90
40287;DHT22;25998;46.604;13.610;2022-10-16T19:24:53;14.70;99.90
40287;DHT22;25998;46.604;13.610;2022-10-16T19:28:04;14.60;99.90
40287;DHT22;25998;46.604;13.610;2022-10-16T19:31:19;14.60;99.90
40287;DHT22;25998;46.604;13.610;2022-10-16T19:34:30;14.70;99.90
40287;DHT22;25998;46.604;13.610;2022-10-16T19:37:41;14.70;99.90
40287;DHT22;25998;46.604;13.610;2022-10-16T19:40:52;14.60;99.90
40287;DHT22;25998;46.604;13.610;2022-10-16T19:44:04;14.60;99.90
40287;DHT22;25998;46.604;13.610;2022-10-16T19:47:15;14.70;99.90
40287;DHT22;25998;46.604;13.610;2022-10-16T19:50:26;14.60;99.90
40287;DHT22;25998;46.604;13.610;2022-10-16T19:53:37;14.50;99.90
40287;DHT22;25998;46.604;13.610;2022-10-16T19:56:48;14.40;99.90
40287;DHT22;25998;46.604;13.610;2022-10-16T19:59:59;14.30;99.90
40287;DHT22;25998;46.604;13.610;2022-10-16T20:03:10;14.30;99.90
40287;DHT22;25998;46.604;13.610;2022-10-16T20:06:21;14.20;99.90
40287;DHT22;25998;46.604;13.610;2022-10-16T20:09:32;14.10;99.90
40287;DHT22;25998;46.604;13.610;2022-10-16T20:12:44;14.10;99.90
40287;DHT22;25998;46.604;13.610;2022-10-16T20:15:55;14.10;99.90
40287;DHT22;25998;46.604;13.610;2022-10-16T20:19:06;14.00;99.90
40287;DHT22;25998;46.604;13.610;2022-10-16T20:22:17;13.90;99.90
40287;DHT22;25998;46.604;13.610;2022-10-16T20:25:28;13.90;99.90
40287;DHT22;25998;46.604;13.610;2022-10-16T20:28:40;13.70;99.90
40287;DHT22;25998;46.604;13.610;2022-10-16T20:31:52;13.70;99.90
40287;DHT22;25998;46.604;13.610;2022-10-16T20:35:03;13.70;99.90
40287;DHT22;25998;46.604;13.610;2022-10-16T20:38:16;13.60;99.90
40287;DHT22;25998;46.604;13.610;2022-10-16T20:41:27;13.60;99.90
40287;DHT22;25998;46.604;13.610;2022-10-16T20:44:38;13.60;99.90
40287;DHT22;25998;46.604;13.610;2022-10-16T20:47:49;13.50;99.90
40287;DHT22;25998;46.604;13.610;2022-10-16T20:51:19;13.50;99.90
40287;DHT22;25998;46.604;13.610;2022-10-16T20:54:30;13.50;99.90
40287;DHT22;25998;46.604;13.610;2022-10-16T20:57:41;13.50;99.90
40287;DHT22;25998;46.604;13.610;2022-10-16T21:00:52;13.40;99.90
40287;DHT22;25998;46.604;13.610;2022-10-16T21:04:05;13.40;99.90
40287;DHT22;25998;46.604;13.610;2022-10-16T21:07:16;13.40;99.90
40287;DHT22;25998;46.604;13.610;2022-10-16T21:10:28;13.40;99.90
40287;DHT22;25998;46.604;13.610;2022-10-16T21:13:39;13.40;99.90
40287;DHT22;25998;46.604;13.610;2022-10-16T21:16:50;13.40;99.90
40287;DHT22;25998;46.604;13.610;2022-10-16T21:20:01;13.30;99.90
40287;DHT22;25998;46.604;13.610;2022-10-16T21:23:12;13.30;99.90
40287;DHT22;25998;46.604;13.610;2022-10-16T21:26:24;13.30;99.90
40287;DHT22;25998;46.604;13.610;2022-10-16T21:29:38;13.30;99.90
40287;DHT22;25998;46.604;13.610;2022-10-16T21:32:48;13.20;99.90
40287;DHT22;25998;46.604;13.610;2022-10-16T21:35:59;13.30;99.90
40287;DHT22;25998;46.604;13.610;2022-10-16T21:39:14;13.40;99.90
40287;DHT22;25998;46.604;13.610;2022-10-16T21:42:26;13.60;99.90
40287;DHT22;25998;46.604;13.610;2022-10-16T21:45:37;13.70;99.90
40287;DHT22;25998;46.604;13.610;2022-10-16T21:48:51;13.70;99.90
40287;DHT22;25998;46.604;13.610;2022-10-16T21:52:02;13.60;99.90
40287;DHT22;25998;46.604;13.610;2022-10-16T21:55:13;13.40;99.90
40287;DHT22;25998;46.604;13.610;2022-10-16T21:58:23;13.30;99.90